Impacts TAF Board
For situational awareness. Not to be used for flight planning purposes.
IDs:

KORD - Chicago/O'Hare Intl, IL, US

Issued at 1120 UTC 10 Aug 2022
Updated at 1414 UTC 10 Aug 2022
Potential Impact None Slight Moderate High
Time1351Z 10/15Z 10/16Z 10/17Z 10/18Z 10/19Z 10/20Z 10/21Z 10/22Z 10/23Z 11/00Z 11/01Z 11/02Z 11/03Z>>
Type OBS PRVL PRVL PRVL PRVL PRVL PRVL PRVL PRVL PRVL PRVL PRVL PRVL PRVL
VIS 10 >6 >6 >6 >6 >6 >6 >6 >6 >6 >6 >6 >6 >6
CIG -- -- -- -- -- -- -- -- -- -- -- -- -- --
Cover FEW FEW FEW FEW FEW FEW FEW FEW FEW FEW FEW FEW FEW FEW
FltCat VFR VFR VFR VFR VFR VFR VFR VFR VFR VFR VFR VFR VFR VFR
WX -- -- -- -- -- -- -- -- -- -- -- -- -- --
WDir VRB 300 300 300 300 300 300 300 300 300 300 300 300 300
WSpd 0 7 7 7 7 7 7 7 7 7 7 7 7 7
WGst -- -- -- -- -- -- -- -- -- -- -- -- -- --
WSHgt -- -- -- -- -- -- -- -- -- -- -- -- -- --
WSDir -- -- -- -- -- -- -- -- -- -- -- -- -- --
WSSpd -- -- -- -- -- -- -- -- -- -- -- -- -- --
Raw TAF
KORD 101120Z 1012/1118 29004KT P6SM SKC
  FM101500 30007KT P6SM FEW040
  FM110900 05011G19KT P6SM SCT025 BKN050


Raw METAR
KORD 101351Z 00000KT 10SM FEW035 22/14 A3018 RMK AO2 SLP218 T02220144
KORD 101251Z 00000KT 10SM FEW035 19/13 A3018 RMK AO2 SLP215 T01940128
KORD 101151Z 00000KT 10SM FEW035 17/13 A3017 RMK AO2 SLP213 T01720128 10178 20156 53008

METAR Board
Radar Display
Forecast Discussion
For situational awareness. Not to be used for flight planning purposes.